createdAt,value
2022-12-04T00:01:56.339Z,2.20
2022-12-04T00:06:59.231Z,2.30
2022-12-04T00:12:01.870Z,2.30
2022-12-04T00:17:04.405Z,2.30
2022-12-04T00:22:07.055Z,2.30
2022-12-04T00:27:09.627Z,2.30
2022-12-04T00:32:12.348Z,2.40
2022-12-04T00:37:14.826Z,2.40
2022-12-04T00:42:17.455Z,2.50
2022-12-04T00:47:19.958Z,2.40
2022-12-04T00:52:22.843Z,2.40
2022-12-04T00:57:25.269Z,2.40
2022-12-04T01:02:27.976Z,2.30
2022-12-04T01:07:30.726Z,2.30
2022-12-04T01:12:33.388Z,2.30
2022-12-04T01:17:35.890Z,2.30
2022-12-04T01:22:38.345Z,2.20
2022-12-04T01:27:40.814Z,2.20
2022-12-04T01:32:43.415Z,2.30
2022-12-04T01:37:46.000Z,2.20
2022-12-04T01:42:48.521Z,2.30
2022-12-04T01:47:55.892Z,2.30
2022-12-04T01:52:59.669Z,2.40
2022-12-04T01:58:03.104Z,2.40
2022-12-04T02:03:05.899Z,2.40
2022-12-04T02:08:08.596Z,2.40
2022-12-04T02:13:25.511Z,2.40
2022-12-04T02:18:47.062Z,2.50
2022-12-04T02:24:17.384Z,2.50
2022-12-04T02:29:35.379Z,2.40
2022-12-04T02:34:43.551Z,2.40
2022-12-04T02:39:56.592Z,2.40
2022-12-04T02:45:06.416Z,2.40
2022-12-04T02:50:15.496Z,2.50
2022-12-04T02:55:27.987Z,2.50
2022-12-04T03:00:32.029Z,2.50
2022-12-04T03:05:47.855Z,2.40
2022-12-04T03:10:55.510Z,2.40
2022-12-04T03:16:04.616Z,2.40
2022-12-04T03:21:15.897Z,2.40
2022-12-04T03:26:27.538Z,2.40
2022-12-04T03:31:39.806Z,2.50
2022-12-04T03:36:54.585Z,2.50
2022-12-04T03:42:08.486Z,2.50
2022-12-04T03:47:18.430Z,2.50
2022-12-04T03:52:37.188Z,2.50
2022-12-04T03:57:43.644Z,2.50
2022-12-04T04:02:57.398Z,2.50
2022-12-04T04:08:24.158Z,2.40
2022-12-04T04:13:56.242Z,2.50
2022-12-04T04:19:18.913Z,2.60
2022-12-04T04:24:39.206Z,2.60
2022-12-04T04:29:51.853Z,2.60
2022-12-04T04:35:14.360Z,2.50
2022-12-04T04:40:33.977Z,2.60
2022-12-04T04:45:48.636Z,2.50
2022-12-04T04:50:51.883Z,2.50
2022-12-04T04:55:54.808Z,2.60
2022-12-04T05:01:08.756Z,2.60
2022-12-04T05:06:11.376Z,2.50
2022-12-04T05:11:15.735Z,2.50
2022-12-04T05:16:18.720Z,2.50
2022-12-04T05:21:21.227Z,2.50
2022-12-04T05:26:24.352Z,2.40
2022-12-04T05:31:26.981Z,2.50
2022-12-04T05:36:29.517Z,2.40
2022-12-04T05:41:32.077Z,2.40
2022-12-04T05:46:34.592Z,2.40
2022-12-04T05:51:37.254Z,2.30
2022-12-04T05:56:39.693Z,2.40
2022-12-04T06:01:42.907Z,2.30
2022-12-04T06:06:45.396Z,2.30
2022-12-04T06:11:47.992Z,2.30
2022-12-04T06:16:50.564Z,2.30
2022-12-04T06:21:54.339Z,2.30
2022-12-04T06:32:22.858Z,2.20
2022-12-04T06:37:25.812Z,2.20
2022-12-04T06:42:28.273Z,2.20
2022-12-04T06:47:31.033Z,2.10
2022-12-04T06:52:34.653Z,2.10
2022-12-04T06:57:37.096Z,2.10
2022-12-04T07:02:39.679Z,2.10
2022-12-04T07:07:42.392Z,2.20
2022-12-04T07:12:44.889Z,2.20
2022-12-04T07:17:47.406Z,2.20
2022-12-04T07:22:49.965Z,2.20
2022-12-04T07:27:52.426Z,2.20
2022-12-04T07:32:55.012Z,2.30
2022-12-04T07:37:57.880Z,2.30
2022-12-04T07:43:00.435Z,2.50
2022-12-04T07:48:03.151Z,2.50
2022-12-04T07:53:05.751Z,2.60
2022-12-04T07:58:08.283Z,2.60
2022-12-04T08:03:10.826Z,2.70
2022-12-04T08:08:13.376Z,2.70
2022-12-04T08:13:18.086Z,3.00
2022-12-04T08:18:20.622Z,2.80
2022-12-04T08:23:23.165Z,3.00
2022-12-04T08:28:25.790Z,3.10
2022-12-04T08:33:29.324Z,3.30
2022-12-04T08:38:31.826Z,3.30
2022-12-04T08:43:35.035Z,3.30
2022-12-04T08:48:38.355Z,3.40
2022-12-04T08:53:41.289Z,3.50
2022-12-04T08:58:43.944Z,3.30
2022-12-04T09:03:46.732Z,3.40
2022-12-04T09:08:53.425Z,3.40
2022-12-04T09:13:56.641Z,3.70
2022-12-04T09:18:59.253Z,3.70
2022-12-04T09:24:02.350Z,3.80
2022-12-04T09:29:07.799Z,3.80
2022-12-04T09:34:10.653Z,3.80
2022-12-04T09:39:13.448Z,3.70
2022-12-04T09:44:31.557Z,3.80
2022-12-04T09:49:41.943Z,3.70
2022-12-04T09:54:46.170Z,3.70
2022-12-04T09:59:51.219Z,3.50
2022-12-04T10:04:57.042Z,3.60
2022-12-04T10:10:15.270Z,3.60
2022-12-04T10:15:29.897Z,3.70
2022-12-04T10:20:51.174Z,3.50
2022-12-04T10:25:55.326Z,3.60
2022-12-04T10:31:01.974Z,3.40
2022-12-04T10:36:06.045Z,3.40
2022-12-04T10:41:32.050Z,3.50
2022-12-04T10:46:41.839Z,3.60
2022-12-04T10:51:48.914Z,3.60
2022-12-04T10:56:57.381Z,3.70
2022-12-04T11:02:17.292Z,3.60
2022-12-04T11:07:34.239Z,3.60
2022-12-04T11:12:37.153Z,3.70
2022-12-04T11:17:40.532Z,3.50
2022-12-04T11:22:58.123Z,3.40
2022-12-04T11:28:02.909Z,3.50
2022-12-04T11:33:16.442Z,3.50
2022-12-04T11:38:20.845Z,3.40
2022-12-04T11:43:29.395Z,3.40
2022-12-04T11:48:41.035Z,3.50
2022-12-04T11:53:44.558Z,3.20
2022-12-04T11:59:02.910Z,3.30
2022-12-04T12:04:43.511Z,3.30
2022-12-04T12:10:11.550Z,3.20
2022-12-04T12:15:14.697Z,3.10
2022-12-04T12:20:41.442Z,3.20
2022-12-04T12:25:58.959Z,3.10
2022-12-04T12:31:06.193Z,3.10
2022-12-04T12:36:10.592Z,3.30
2022-12-04T12:41:21.708Z,3.40
2022-12-04T12:46:31.179Z,3.30
2022-12-04T12:51:41.287Z,3.30
2022-12-04T12:56:50.090Z,3.00
2022-12-04T13:02:28.679Z,3.10
2022-12-04T13:07:47.515Z,3.00
2022-12-04T13:12:57.444Z,3.00
2022-12-04T13:18:01.349Z,3.00
2022-12-04T13:23:36.405Z,2.80
2022-12-04T13:28:42.067Z,2.90
2022-12-04T13:34:07.318Z,2.90
2022-12-04T13:39:31.998Z,2.60
2022-12-04T13:44:36.412Z,2.50
2022-12-04T13:49:46.195Z,2.70
2022-12-04T13:55:01.411Z,2.80
2022-12-04T14:00:25.558Z,2.80
2022-12-04T14:05:41.582Z,2.60
2022-12-04T14:11:14.260Z,2.60
2022-12-04T14:16:30.647Z,2.70
2022-12-04T14:21:44.219Z,2.70
2022-12-04T14:32:22.349Z,2.50
2022-12-04T14:37:36.373Z,2.60
2022-12-04T14:42:40.479Z,2.60
2022-12-04T14:48:21.556Z,2.40
2022-12-04T14:53:44.848Z,2.40
2022-12-04T14:58:48.047Z,2.50
2022-12-04T15:03:54.349Z,2.50
2022-12-04T15:09:18.136Z,2.30
2022-12-04T15:14:20.643Z,2.20
2022-12-04T15:19:23.153Z,2.10
2022-12-04T15:24:25.835Z,2.10
2022-12-04T15:29:33.627Z,2.30
2022-12-04T15:34:38.968Z,2.30
2022-12-04T15:39:42.900Z,2.10
2022-12-04T15:45:03.665Z,2.10
2022-12-04T15:50:31.657Z,2.10
2022-12-04T15:55:59.819Z,2.20
2022-12-04T16:01:09.534Z,2.10
2022-12-04T16:06:28.038Z,2.20
2022-12-04T16:11:39.184Z,2.10
2022-12-04T16:16:44.904Z,5.20
2022-12-04T16:21:47.563Z,2.10
2022-12-04T16:26:51.896Z,1.90
2022-12-04T16:31:57.168Z,1.90
2022-12-04T16:37:17.254Z,2.00
2022-12-04T16:42:29.164Z,2.00
2022-12-04T16:47:31.685Z,2.00
2022-12-04T16:52:34.165Z,1.90
2022-12-04T16:57:36.788Z,2.00
2022-12-04T17:02:39.443Z,2.10
2022-12-04T17:07:42.099Z,2.00
2022-12-04T17:12:44.654Z,1.90
2022-12-04T17:17:47.252Z,2.00
2022-12-04T17:22:50.230Z,1.90
2022-12-04T17:27:52.877Z,1.90
2022-12-04T17:32:55.402Z,2.00
2022-12-04T17:38:03.915Z,2.10
2022-12-04T17:43:08.477Z,2.10
2022-12-04T17:48:10.977Z,2.10
2022-12-04T17:53:13.697Z,2.20
2022-12-04T17:58:16.155Z,2.10
2022-12-04T18:03:18.725Z,2.10
2022-12-04T18:08:22.092Z,2.10
2022-12-04T18:13:24.840Z,2.00
2022-12-04T18:18:27.307Z,1.90
2022-12-04T18:23:30.363Z,2.00
2022-12-04T18:28:32.948Z,2.00
2022-12-04T18:33:37.477Z,2.00
2022-12-04T18:38:40.153Z,2.00
2022-12-04T18:43:44.684Z,2.00
2022-12-04T18:48:48.955Z,2.00
2022-12-04T18:53:53.044Z,2.00
2022-12-04T18:59:00.441Z,2.00
2022-12-04T19:04:06.940Z,2.10
2022-12-04T19:09:17.230Z,2.00
2022-12-04T19:14:23.451Z,2.00
2022-12-04T19:19:31.354Z,2.00
2022-12-04T19:24:34.352Z,1.90
2022-12-04T19:29:40.925Z,1.90
2022-12-04T19:34:43.832Z,2.00
2022-12-04T19:39:46.401Z,2.00
2022-12-04T19:44:49.783Z,2.00
2022-12-04T19:49:52.640Z,2.00
2022-12-04T19:54:55.189Z,2.00
2022-12-04T19:59:57.773Z,2.00
2022-12-04T20:05:00.295Z,1.90
2022-12-04T20:10:02.882Z,1.90
2022-12-04T20:15:05.742Z,2.00
2022-12-04T20:20:09.167Z,2.00
2022-12-04T20:25:11.729Z,2.00
2022-12-04T20:30:14.273Z,2.10
2022-12-04T20:35:19.925Z,2.00
2022-12-04T20:40:22.687Z,1.90
2022-12-04T20:45:25.385Z,1.90
2022-12-04T20:50:28.057Z,2.00
2022-12-04T20:55:30.707Z,1.90
2022-12-04T21:00:33.393Z,1.90
2022-12-04T21:05:35.936Z,1.90
2022-12-04T21:10:38.467Z,1.90
2022-12-04T21:15:59.666Z,2.00
2022-12-04T21:21:02.779Z,2.00
2022-12-04T21:26:05.691Z,1.90
2022-12-04T21:31:08.354Z,1.90
2022-12-04T21:36:11.050Z,1.80
2022-12-04T21:41:36.736Z,1.70
2022-12-04T21:46:40.006Z,1.80
2022-12-04T21:51:59.119Z,1.80
2022-12-04T21:57:01.985Z,1.80
2022-12-04T22:02:04.624Z,1.70
2022-12-04T22:07:07.396Z,1.70
2022-12-04T22:12:41.391Z,1.70
2022-12-04T22:17:35.099Z,1.80
2022-12-04T22:22:37.648Z,1.70
2022-12-04T22:27:40.167Z,1.80
2022-12-04T22:32:42.802Z,1.80
2022-12-04T22:37:46.339Z,1.80
2022-12-04T22:42:48.839Z,1.60
2022-12-04T22:47:51.523Z,1.60
2022-12-04T22:52:54.096Z,1.70
2022-12-04T22:57:56.600Z,1.70
2022-12-04T23:02:59.159Z,1.50
2022-12-04T23:08:02.017Z,1.30
2022-12-04T23:13:05.010Z,1.30
2022-12-04T23:18:07.657Z,1.30
2022-12-04T23:23:10.315Z,1.40
2022-12-04T23:28:12.907Z,1.50
2022-12-04T23:33:15.364Z,1.30
2022-12-04T23:38:17.931Z,1.40
2022-12-04T23:43:20.618Z,1.40
2022-12-04T23:48:24.345Z,1.60
2022-12-04T23:53:27.411Z,1.60
2022-12-04T23:58:30.863Z,1.40
